Brennajenta — LM4049 — position and weather

sailwx.info

Track history (hours):
 
Tides and Currents Weather Stations Pressure Air Temp Water Temp Dewpoint Dewpoint Depression Visibility Wind Speed Wind Dir Waves Ship Positions

Brennajenta

Last reported at 2017-Oct-17 16:46 UTC. Time now 2017-Oct-18 18:44 UTC.
Position N 63°43' E 009°35'.

Length 10 m.

Type: Fishing. MMSI: 257041800.

Date/timePositionNaut miles runAvg speedWind from/ knotsBaromVisibWave heightAir tempDewpointWater temp
2017-Oct-17 16:46N 63°43' E 009°35'0 0.0
2017-Oct-17 16:28N 63°43' E 009°35'0 0.0
2017-Oct-17 15:58N 63°43' E 009°35'0 0.0
2017-Oct-17 15:28N 63°43' E 009°35'0 0.0
2017-Oct-17 14:58N 63°43' E 009°35'0 0.0
2017-Oct-17 14:28N 63°43' E 009°35'0 0.0
2017-Oct-17 13:58N 63°43' E 009°35'0 0.0
2017-Oct-17 13:28N 63°43' E 009°35'0 0.3
2017-Oct-17 12:59N 63°44' E 009°35'3 5.5
2017-Oct-17 12:30N 63°45' E 009°30'2 4.0
2017-Oct-17 12:00N 63°46' E 009°26'0 0.1
2017-Oct-17 11:30N 63°46' E 009°26'0 0.2
2017-Oct-17 11:00N 63°46' E 009°26'3 6.1
2017-Oct-17 10:30N 63°44' E 009°32'1 1.4
2017-Oct-17 09:58N 63°44' E 009°34'0 0.3
2017-Oct-17 09:28N 63°44' E 009°33'0 0.4
2017-Oct-17 08:58N 63°44' E 009°33'0 0.6
2017-Oct-17 08:30N 63°44' E 009°32'1 2.1
2017-Oct-17 08:00N 63°44' E 009°35'0 0.6
2017-Oct-17 07:28N 63°43' E 009°35'0 0.0
2017-Oct-16 16:38N 63°43' E 009°35'0 0.0
2017-Oct-16 16:29N 63°43' E 009°35'0 0.0
2017-Oct-16 15:59N 63°43' E 009°35'0 0.0
2017-Oct-16 15:29N 63°43' E 009°35'0 0.0
2017-Oct-16 14:59N 63°43' E 009°35'0 0.0
2017-Oct-16 13:59N 63°43' E 009°35'0 0.0
2017-Oct-16 13:29N 63°43' E 009°35'0 0.0
2017-Oct-16 12:59N 63°43' E 009°35'0 0.0
2017-Oct-16 12:29N 63°43' E 009°35'0 0.0
2017-Oct-16 11:59N 63°43' E 009°35'0 0.0
2017-Oct-16 11:29N 63°43' E 009°35'0 0.0
2017-Oct-16 10:59N 63°43' E 009°35'0 0.0
2017-Oct-16 10:29N 63°43' E 009°35'0 0.0
2017-Oct-16 09:59N 63°43' E 009°35'0 0.0
2017-Oct-14 19:35N 63°43' E 009°35'0 0.0
2017-Oct-14 19:29N 63°43' E 009°35'0 0.0
2017-Oct-12 16:41N 63°43' E 009°35'0 0.0
2017-Oct-12 16:29N 63°43' E 009°35'0 0.0
2017-Oct-12 15:59N 63°43' E 009°35'1 2.2
2017-Oct-12 15:29N 63°44' E 009°33'0 0.9
2017-Oct-12 15:00N 63°44' E 009°34'1 0.0
2017-Oct-10 15:55N 63°43' E 009°35'0 0.0
2017-Oct-10 15:28N 63°43' E 009°35'0 0.0
2017-Oct-10 14:58N 63°43' E 009°35'0 0.0
2017-Oct-10 13:58N 63°43' E 009°35'0 0.0
2017-Oct-10 13:28N 63°43' E 009°35'0 0.0
2017-Oct-10 12:58N 63°43' E 009°35'0 0.0
2017-Oct-10 12:28N 63°43' E 009°35'0 0.0
2017-Oct-10 11:58N 63°43' E 009°35'0 0.0
2017-Oct-09 16:47N 63°43' E 009°35'0 0.0
2017-Oct-09 16:29N 63°43' E 009°35'0 0.0
2017-Oct-09 15:59N 63°43' E 009°35'0 0.0
2017-Oct-09 15:29N 63°43' E 009°35'0 0.0
2017-Oct-09 14:59N 63°43' E 009°35'0 0.0
2017-Oct-09 14:29N 63°43' E 009°35'0 0.4
2017-Oct-09 13:58N 63°44' E 009°35'0 0.0
2017-Oct-09 13:25N 63°44' E 009°35'0 0.0
2017-Oct-09 12:58N 63°44' E 009°35'0 0.1
2017-Oct-09 12:30N 63°44' E 009°35'0 0.4
2017-Oct-09 11:58N 63°43' E 009°35'0 0.0
2017-Oct-09 11:28N 63°43' E 009°35'0 0.0
2017-Oct-09 10:58N 63°43' E 009°35'0 0.0
2017-Oct-09 10:28N 63°43' E 009°35'0 0.0
2017-Oct-09 09:58N 63°43' E 009°35'  
Track history (hours):
 
Tides and Currents Weather Stations Pressure Air Temp Water Temp Dewpoint Dewpoint Depression Visibility Wind Speed Wind Dir Waves Ship Positions

Brennajenta

Last reported at 2017-Oct-17 16:46 UTC. Time now 2017-Oct-18 18:44 UTC.
Position N 63°43' E 009°35'.

Length 10 m.

Type: Fishing. MMSI: 257041800.

Date/timePositionNaut miles runAvg speedWind from/ knotsBaromVisibWave heightAir tempDewpointWater temp
2017-Oct-17 16:46N 63°43' E 009°35'0 0.0
2017-Oct-17 16:28N 63°43' E 009°35'0 0.0
2017-Oct-17 15:58N 63°43' E 009°35'0 0.0
2017-Oct-17 15:28N 63°43' E 009°35'0 0.0
2017-Oct-17 14:58N 63°43' E 009°35'0 0.0
2017-Oct-17 14:28N 63°43' E 009°35'0 0.0
2017-Oct-17 13:58N 63°43' E 009°35'0 0.0
2017-Oct-17 13:28N 63°43' E 009°35'0 0.3
2017-Oct-17 12:59N 63°44' E 009°35'3 5.5
2017-Oct-17 12:30N 63°45' E 009°30'2 4.0
2017-Oct-17 12:00N 63°46' E 009°26'0 0.1
2017-Oct-17 11:30N 63°46' E 009°26'0 0.2
2017-Oct-17 11:00N 63°46' E 009°26'3 6.1
2017-Oct-17 10:30N 63°44' E 009°32'1 1.4
2017-Oct-17 09:58N 63°44' E 009°34'0 0.3
2017-Oct-17 09:28N 63°44' E 009°33'0 0.4
2017-Oct-17 08:58N 63°44' E 009°33'0 0.6
2017-Oct-17 08:30N 63°44' E 009°32'1 2.1
2017-Oct-17 08:00N 63°44' E 009°35'0 0.6
2017-Oct-17 07:28N 63°43' E 009°35'0 0.0
2017-Oct-16 16:38N 63°43' E 009°35'0 0.0
2017-Oct-16 16:29N 63°43' E 009°35'0 0.0
2017-Oct-16 15:59N 63°43' E 009°35'0 0.0
2017-Oct-16 15:29N 63°43' E 009°35'0 0.0
2017-Oct-16 14:59N 63°43' E 009°35'0 0.0
2017-Oct-16 13:59N 63°43' E 009°35'0 0.0
2017-Oct-16 13:29N 63°43' E 009°35'0 0.0
2017-Oct-16 12:59N 63°43' E 009°35'0 0.0
2017-Oct-16 12:29N 63°43' E 009°35'0 0.0
2017-Oct-16 11:59N 63°43' E 009°35'0 0.0
2017-Oct-16 11:29N 63°43' E 009°35'0 0.0
2017-Oct-16 10:59N 63°43' E 009°35'0 0.0
2017-Oct-16 10:29N 63°43' E 009°35'0 0.0
2017-Oct-16 09:59N 63°43' E 009°35'0 0.0
2017-Oct-14 19:35N 63°43' E 009°35'0 0.0
2017-Oct-14 19:29N 63°43' E 009°35'0 0.0
2017-Oct-12 16:41N 63°43' E 009°35'0 0.0
2017-Oct-12 16:29N 63°43' E 009°35'0 0.0
2017-Oct-12 15:59N 63°43' E 009°35'1 2.2
2017-Oct-12 15:29N 63°44' E 009°33'0 0.9
2017-Oct-12 15:00N 63°44' E 009°34'1 0.0
2017-Oct-10 15:55N 63°43' E 009°35'0 0.0
2017-Oct-10 15:28N 63°43' E 009°35'0 0.0
2017-Oct-10 14:58N 63°43' E 009°35'0 0.0
2017-Oct-10 13:58N 63°43' E 009°35'0 0.0
2017-Oct-10 13:28N 63°43' E 009°35'0 0.0
2017-Oct-10 12:58N 63°43' E 009°35'0 0.0
2017-Oct-10 12:28N 63°43' E 009°35'0 0.0
2017-Oct-10 11:58N 63°43' E 009°35'0 0.0
2017-Oct-09 16:47N 63°43' E 009°35'0 0.0
2017-Oct-09 16:29N 63°43' E 009°35'0 0.0
2017-Oct-09 15:59N 63°43' E 009°35'0 0.0
2017-Oct-09 15:29N 63°43' E 009°35'0 0.0
2017-Oct-09 14:59N 63°43' E 009°35'0 0.0
2017-Oct-09 14:29N 63°43' E 009°35'0 0.4
2017-Oct-09 13:58N 63°44' E 009°35'0 0.0
2017-Oct-09 13:25N 63°44' E 009°35'0 0.0
2017-Oct-09 12:58N 63°44' E 009°35'0 0.1
2017-Oct-09 12:30N 63°44' E 009°35'0 0.4
2017-Oct-09 11:58N 63°43' E 009°35'0 0.0
2017-Oct-09 11:28N 63°43' E 009°35'0 0.0
2017-Oct-09 10:58N 63°43' E 009°35'0 0.0
2017-Oct-09 10:28N 63°43' E 009°35'0 0.0
2017-Oct-09 09:58N 63°43' E 009°35'  

Dump ship's entire track history